Time;durP1;ratioP1;P1;durP2;ratioP2;P2;SDS_P1;SDS_P2;PMS_P1;PMS_P2;Temp;Humidity;BMP_temperature;BMP_pressure;BME280_temperature;BME280_humidity;BME280_pressure;Samples;Min_cycle;Max_cycle;Signal;HPM_P1;HPM_P2
2023/02/22 00:00:55;;;;;;;0.10;0.10;;;;;;;-14.89;68.04;98428.41;5053597;28;20044;-68
2023/02/22 00:03:23;;;;;;;0.20;0.20;;;;;;;-14.93;67.72;98433.09;5085280;28;20040;-69
2023/02/22 00:05:53;;;;;;;0.10;0.10;;;;;;;-14.93;68.23;98440.16;5074898;28;20555;-69
2023/02/22 00:08:22;;;;;;;0.10;0.10;;;;;;;-14.97;68.44;98440.47;5083702;28;20052;-69
2023/02/22 00:10:51;;;;;;;0.10;0.10;;;;;;;-14.97;68.25;98447.50;5066284;28;20056;-69
2023/02/22 00:13:21;;;;;;;0.10;0.10;;;;;;;-14.93;68.28;98445.41;5084803;28;20150;-68
2023/02/22 00:15:48;;;;;;;0.20;0.20;;;;;;;-14.99;68.00;98452.88;5069141;28;20525;-69
2023/02/22 00:18:16;;;;;;;0.13;0.13;;;;;;;-15.00;68.25;98456.47;5089158;28;20580;-69
2023/02/22 00:20:43;;;;;;;0.10;0.10;;;;;;;-14.95;68.19;98450.78;5104675;28;20092;-69
2023/02/22 00:23:14;;;;;;;0.10;0.10;;;;;;;-14.95;68.26;98463.09;5083452;28;20518;-69
2023/02/22 00:25:40;;;;;;;0.20;0.20;;;;;;;-15.08;68.04;98442.41;5082317;28;20572;-69
2023/02/22 00:28:06;;;;;;;0.13;0.13;;;;;;;-15.04;67.82;98460.34;5077674;28;20081;-69
2023/02/22 00:30:34;;;;;;;0.10;0.10;;;;;;;-15.07;68.31;98463.25;5104076;28;20055;-69
2023/02/22 00:33:00;;;;;;;0.20;0.20;;;;;;;-15.13;68.35;98472.53;5087266;28;20582;-69
2023/02/22 00:35:28;;;;;;;0.20;0.20;;;;;;;-15.17;68.21;98471.16;5096261;28;20047;-69
2023/02/22 00:37:56;;;;;;;0.43;0.20;;;;;;;-15.17;68.30;98475.56;5082891;28;20104;-69
2023/02/22 00:40:25;;;;;;;;;;;;;;;-15.20;68.25;98479.31;5075284;28;20521;-69
2023/02/22 00:42:52;;;;;;;0.20;0.20;;;;;;;-15.18;68.70;98482.63;5081698;28;19924;-69
2023/02/22 00:45:20;;;;;;;0.10;0.10;;;;;;;-15.17;68.17;98486.91;5079914;28;20048;-69
2023/02/22 00:47:47;;;;;;;0.10;0.10;;;;;;;-15.22;68.04;98477.81;5062120;28;20055;-68
2023/02/22 00:50:15;;;;;;;0.10;0.10;;;;;;;-15.14;68.36;98493.66;5067501;28;20465;-69
2023/02/22 00:52:42;;;;;;;0.10;0.10;;;;;;;-15.16;68.38;98499.06;5098161;28;20150;-69
2023/02/22 00:55:10;;;;;;;0.03;0.03;;;;;;;-15.17;68.33;98501.81;5084091;28;20055;-69
2023/02/22 00:57:37;;;;;;;0.20;0.20;;;;;;;-15.17;68.44;98496.56;5083943;28;20048;-69
2023/02/22 01:00:11;;;;;;;0.13;0.13;;;;;;;-15.14;68.36;98493.66;5083462;28;20460;-69
2023/02/22 01:02:38;;;;;;;0.10;0.10;;;;;;;-15.10;68.29;98497.66;5075916;28;20486;-69
2023/02/22 01:05:05;;;;;;;0.20;0.20;;;;;;;-15.12;68.35;98500.41;5092835;28;20048;-69
2023/02/22 01:07:31;;;;;;;0.10;0.10;;;;;;;-15.05;68.53;98503.31;5083923;28;20469;-69
2023/02/22 01:09:57;;;;;;;0.53;0.20;;;;;;;-15.01;68.62;98502.03;5083571;28;20062;-68
2023/02/22 01:12:23;;;;;;;0.10;0.10;;;;;;;-14.98;67.96;98512.28;5083387;28;20060;-69
2023/02/22 01:14:51;;;;;;;0.10;0.10;;;;;;;-15.00;68.26;98518.63;5068946;28;20055;-69
2023/02/22 01:17:16;;;;;;;;;;;;;;;-14.99;68.51;98528.16;5079734;28;20048;-69
2023/02/22 01:19:42;;;;;;;0.10;0.10;;;;;;;-14.99;68.51;98525.53;5077321;28;20015;-69
2023/02/22 01:22:09;;;;;;;0.10;0.10;;;;;;;-15.01;68.58;98524.84;5086381;28;20102;-69
2023/02/22 01:24:36;;;;;;;0.00;0.00;;;;;;;-15.02;68.48;98517.94;5086433;28;20404;-69
2023/02/22 01:27:02;;;;;;;0.10;0.10;;;;;;;-15.06;68.48;98527.88;5062299;28;20056;-69
2023/02/22 01:29:28;;;;;;;0.10;0.10;;;;;;;-15.16;68.45;98527.06;5099451;28;20438;-69
2023/02/22 01:31:56;;;;;;;0.10;0.10;;;;;;;-15.14;68.78;98544.31;5086569;28;20109;-70
2023/02/22 01:34:24;;;;;;;0.10;0.10;;;;;;;-15.15;68.79;98540.06;5064717;28;20048;-69
2023/02/22 01:36:50;;;;;;;;;;;;;;;-15.19;68.86;98543.09;5093767;28;20048;-69
2023/02/22 01:39:17;;;;;;;0.20;0.20;;;;;;;-15.26;68.58;98546.28;5089934;28;19924;-69
2023/02/22 01:41:43;;;;;;;0.10;0.10;;;;;;;-15.29;68.53;98551.81;5052126;28;20465;-69
2023/02/22 01:44:18;;;;;;;0.10;0.10;;;;;;;-15.29;68.94;98540.47;5081068;28;20043;-69
2023/02/22 01:46:44;;;;;;;0.20;0.20;;;;;;;-15.29;68.95;98549.19;5058295;28;20070;-69
2023/02/22 01:49:14;;;;;;;0.10;0.10;;;;;;;-15.32;68.88;98554.69;5093330;28;20051;-69
2023/02/22 01:51:44;;;;;;;0.30;0.30;;;;;;;-15.30;68.91;98554.56;5061341;28;20044;-69
2023/02/22 01:54:14;;;;;;;0.20;0.20;;;;;;;-15.29;68.74;98561.47;5081262;28;20051;-69
2023/02/22 01:56:46;;;;;;;0.20;0.20;;;;;;;-15.29;68.82;98567.56;5103234;28;20105;-69
2023/02/22 01:59:12;;;;;;;0.10;0.10;;;;;;;-15.37;68.66;98562.16;5083804;28;20044;-69
2023/02/22 02:01:41;;;;;;;0.10;0.10;;;;;;;-15.35;68.73;98570.72;5076098;28;20052;-69
2023/02/22 02:04:14;;;;;;;0.23;0.23;;;;;;;-15.37;68.60;98571.81;5085324;28;20052;-69
2023/02/22 02:06:42;;;;;;;0.13;0.13;;;;;;;-15.39;68.91;98561.47;5093908;28;20420;-69
2023/02/22 02:09:22;;;;;;;0.20;0.20;;;;;;;-15.39;68.71;98567.53;5062342;28;20185;-68
2023/02/22 02:11:49;;;;;;;0.20;0.20;;;;;;;-15.45;68.68;98562.84;5070438;28;20438;-69
2023/02/22 02:14:15;;;;;;;0.20;0.10;;;;;;;-15.42;68.79;98578.31;5087827;28;20409;-69
2023/02/22 02:16:47;;;;;;;0.13;0.13;;;;;;;-15.37;68.84;98587.53;5092048;28;20767;-69
2023/02/22 02:19:23;;;;;;;0.57;0.30;;;;;;;-15.36;69.19;98581.34;5077986;28;20071;-69
2023/02/22 02:22:24;;;;;;;0.10;0.10;;;;;;;-15.33;68.43;98589.75;5087102;28;20402;-69
2023/02/22 02:25:26;;;;;;;0.13;0.13;;;;;;;-15.31;68.78;98594.88;5042741;28;20056;-69
2023/02/22 02:28:46;;;;;;;0.20;0.20;;;;;;;-15.32;68.33;98595.84;5089095;28;20043;-69
2023/02/22 02:31:29;;;;;;;0.10;0.10;;;;;;;-15.36;68.37;98594.47;5069763;28;20145;-70
2023/02/22 02:34:02;;;;;;;0.10;0.10;;;;;;;-15.36;68.66;98604.97;5096975;28;20128;-69
2023/02/22 02:36:34;;;;;;;0.20;0.20;;;;;;;-15.41;68.61;98603.56;5082790;28;20047;-69
2023/02/22 02:39:07;;;;;;;0.10;0.10;;;;;;;-15.35;68.72;98611.84;5085172;28;20055;-69
2023/02/22 02:41:38;;;;;;;0.27;0.20;;;;;;;-15.33;68.52;98609.91;5073801;28;20044;-69
2023/02/22 02:44:11;;;;;;;0.10;0.10;;;;;;;-15.32;68.52;98608.94;5079900;28;20052;-69
2023/02/22 02:46:46;;;;;;;0.20;0.20;;;;;;;-15.34;68.43;98616.94;5068712;28;20052;-69
2023/02/22 02:49:18;;;;;;;0.30;0.20;;;;;;;-15.35;68.45;98636.28;5093252;28;20133;-69
2023/02/22 02:51:49;;;;;;;0.20;0.20;;;;;;;-15.30;68.18;98635.88;5094592;28;20142;-69
2023/02/22 02:54:15;;;;;;;0.10;0.10;;;;;;;-15.28;68.34;98639.16;5085826;28;20061;-69
2023/02/22 02:56:42;;;;;;;0.20;0.20;;;;;;;-15.26;68.77;98643.31;5065907;28;20123;-69
2023/02/22 02:59:25;;;;;;;0.20;0.20;;;;;;;-15.26;68.74;98638.09;5075894;28;20040;-69
2023/02/22 03:02:04;;;;;;;0.20;0.20;;;;;;;-15.29;68.68;98635.75;5079002;28;20086;-68
2023/02/22 03:04:44;;;;;;;0.10;0.10;;;;;;;-15.27;68.95;98646.91;5092704;28;20039;-69
2023/02/22 03:07:29;;;;;;;0.10;0.10;;;;;;;-15.51;68.73;98604.53;5105350;28;20396;-69
2023/02/22 03:10:12;;;;;;;0.10;0.10;;;;;;;-15.33;68.44;98652.69;5056640;28;20063;-69
2023/02/22 03:12:46;;;;;;;0.20;0.20;;;;;;;-15.36;68.77;98646.91;5098581;28;20418;-69
2023/02/22 03:15:22;;;;;;;0.10;0.10;;;;;;;-15.40;68.80;98652.41;5066997;28;20104;-68
2023/02/22 03:17:55;;;;;;;0.38;0.38;;;;;;;-15.55;68.81;98633.63;5068425;28;20047;-69
2023/02/22 03:20:30;;;;;;;0.10;0.10;;;;;;;-15.49;69.14;98648.00;5068431;28;20044;-68
2023/02/22 03:23:03;;;;;;;0.10;0.10;;;;;;;-15.51;69.29;98649.94;5070751;28;20454;-69
2023/02/22 03:25:33;;;;;;;0.10;0.10;;;;;;;-15.48;69.04;98660.13;5075218;28;20043;-69
2023/02/22 03:28:04;;;;;;;0.10;0.10;;;;;;;-15.50;69.26;98658.59;5087712;28;20288;-69
2023/02/22 03:30:35;;;;;;;0.20;0.20;;;;;;;-15.45;69.19;98672.13;5091088;28;20073;-69
2023/02/22 03:33:09;;;;;;;0.37;0.20;;;;;;;-15.46;68.88;98671.31;5069566;28;20083;-68
2023/02/22 03:35:41;;;;;;;0.10;0.10;;;;;;;-15.47;68.67;98672.28;5058529;28;20055;-69
2023/02/22 03:38:11;;;;;;;0.13;0.13;;;;;;;-15.57;68.62;98674.03;5067013;28;20507;-69
2023/02/22 03:40:42;;;;;;;0.10;0.10;;;;;;;-15.49;68.83;98686.47;5072614;28;20039;-69
2023/02/22 03:43:14;;;;;;;0.10;0.10;;;;;;;-15.51;68.79;98689.25;5076942;28;20573;-69
2023/02/22 03:45:45;;;;;;;0.20;0.20;;;;;;;-15.52;68.86;98694.63;5056595;28;20066;-68
2023/02/22 03:48:19;;;;;;;0.10;0.10;;;;;;;-15.50;68.92;98687.44;5080434;28;20561;-69
2023/02/22 03:50:49;;;;;;;0.17;0.17;;;;;;;-15.50;68.77;98700.56;5083800;28;20519;-69
2023/02/22 03:53:17;;;;;;;0.10;0.10;;;;;;;-15.53;68.80;98696.41;5076596;28;20490;-69
2023/02/22 03:55:50;;;;;;;0.20;0.20;;;;;;;-15.55;68.74;98701.78;5082503;28;20433;-69
2023/02/22 03:58:19;;;;;;;0.10;0.10;;;;;;;-15.50;68.95;98709.25;5070517;28;20056;-69
2023/02/22 04:00:46;;;;;;;0.10;0.10;;;;;;;-15.50;68.90;98713.66;5060975;28;20059;-69
2023/02/22 04:03:12;;;;;;;0.10;0.10;;;;;;;-15.46;68.66;98715.03;5068800;28;20044;-69
2023/02/22 04:05:38;;;;;;;0.20;0.20;;;;;;;-15.42;68.59;98721.69;5071326;28;20054;-69
2023/02/22 04:08:06;;;;;;;0.00;0.00;;;;;;;-15.43;68.18;98715.63;5063930;28;20399;-68
2023/02/22 04:10:32;;;;;;;;;;;;;;;-15.47;67.96;98723.88;5048454;28;20143;-69
2023/02/22 04:12:59;;;;;;;0.20;0.20;;;;;;;-15.55;68.07;98717.53;5067191;28;19930;-69
2023/02/22 04:15:25;;;;;;;0.10;0.10;;;;;;;-15.61;68.02;98725.91;5048849;28;20075;-69
2023/02/22 04:17:55;;;;;;;0.10;0.10;;;;;;;-15.65;68.09;98724.53;5082961;28;20052;-69
2023/02/22 04:20:24;;;;;;;0.23;0.17;;;;;;;-15.68;68.20;98733.50;5069338;28;20059;-68
2023/02/22 04:23:07;;;;;;;0.23;0.23;;;;;;;-15.76;68.20;98732.47;5079775;28;20086;-69
2023/02/22 04:25:37;;;;;;;0.10;0.10;;;;;;;-15.86;68.10;98733.28;5070819;28;20097;-69
2023/02/22 04:28:10;;;;;;;0.10;0.10;;;;;;;-15.87;68.54;98739.50;5064177;28;20044;-68
2023/02/22 04:30:42;;;;;;;0.10;0.10;;;;;;;-15.86;68.68;98740.28;5064160;28;20091;-68
2023/02/22 04:33:14;;;;;;;0.20;0.20;;;;;;;-15.87;68.52;98749.13;5068233;28;20039;-68
2023/02/22 04:35:41;;;;;;;0.10;0.10;;;;;;;-15.90;68.60;98746.81;5070614;28;20056;-69
2023/02/22 04:38:08;;;;;;;0.10;0.10;;;;;;;-15.93;68.56;98758.38;5092825;28;20477;-69
2023/02/22 04:40:34;;;;;;;;;;;;;;;-15.97;68.51;98757.81;5085132;28;20198;-69
2023/02/22 04:43:01;;;;;;;0.10;0.10;;;;;;;-16.00;68.69;98760.69;5072338;28;19977;-69
2023/02/22 04:45:27;;;;;;;0.10;0.10;;;;;;;-16.01;68.79;98763.44;5085680;28;20143;-68
2023/02/22 04:47:54;;;;;;;0.10;0.10;;;;;;;-16.06;68.83;98755.16;5052882;28;20231;-69
2023/02/22 04:50:21;;;;;;;0.10;0.10;;;;;;;-16.03;69.03;98768.78;5076429;28;20052;-69
2023/02/22 04:52:47;;;;;;;0.10;0.10;;;;;;;-16.02;69.17;98780.13;5097276;28;20083;-68
2023/02/22 04:55:15;;;;;;;0.20;0.20;;;;;;;-16.04;69.12;98766.31;5090333;28;20138;-68
2023/02/22 04:57:42;;;;;;;0.10;0.10;;;;;;;-15.94;69.15;98780.28;5051699;28;20044;-68
2023/02/22 05:00:09;;;;;;;0.10;0.10;;;;;;;-15.89;68.81;98780.75;5071619;28;20059;-68
2023/02/22 05:02:38;;;;;;;0.10;0.10;;;;;;;-15.81;68.77;98777.44;5089132;28;20708;-68
2023/02/22 05:05:05;;;;;;;0.10;0.10;;;;;;;-15.76;68.76;98782.25;5086755;28;20527;-68
2023/02/22 05:07:31;;;;;;;0.20;0.20;;;;;;;-15.75;68.56;98778.72;5069537;28;20538;-68
2023/02/22 05:09:57;;;;;;;0.10;0.10;;;;;;;-15.72;68.55;98773.19;5087046;28;20310;-69
2023/02/22 05:12:26;;;;;;;0.10;0.10;;;;;;;-15.71;68.08;98788.78;5090127;28;20079;-68
2023/02/22 05:14:52;;;;;;;0.10;0.10;;;;;;;-15.70;67.89;98779.94;5069594;28;20052;-68
2023/02/22 05:17:18;;;;;;;0.10;0.10;;;;;;;-15.72;68.07;98781.88;5078279;28;20059;-69
2023/02/22 05:19:46;;;;;;;0.20;0.20;;;;;;;-15.76;67.25;98774.41;5093194;28;20044;-69
2023/02/22 05:22:12;;;;;;;0.20;0.20;;;;;;;-15.77;67.32;98780.59;5072010;28;20047;-69
2023/02/22 05:24:38;;;;;;;0.20;0.20;;;;;;;-15.80;66.95;98773.84;5093291;28;20066;-68
2023/02/22 05:27:05;;;;;;;0.10;0.10;;;;;;;-15.87;66.73;98791.88;5070128;28;20538;-69
2023/02/22 05:29:33;;;;;;;0.10;0.10;;;;;;;-15.86;66.76;98790.94;5075947;28;20060;-68
2023/02/22 05:31:59;;;;;;;0.10;0.10;;;;;;;-15.82;66.57;98804.59;5067292;28;20052;-69
2023/02/22 05:34:27;;;;;;;0.13;0.13;;;;;;;-15.80;66.67;98809.69;5081268;28;20079;-69
2023/02/22 05:36:53;;;;;;;0.20;0.20;;;;;;;-15.77;66.56;98812.91;5090669;28;20154;-70
2023/02/22 05:39:19;;;;;;;0.30;0.30;;;;;;;-15.74;66.77;98811.81;5084823;28;20048;-68
2023/02/22 05:41:45;;;;;;;0.10;0.10;;;;;;;-15.75;66.45;98813.59;5089071;28;20040;-68
2023/02/22 05:44:12;;;;;;;0.10;0.10;;;;;;;-15.64;66.40;98811.88;5073389;28;20044;-68
2023/02/22 05:46:41;;;;;;;0.10;0.10;;;;;;;-15.59;66.13;98821.00;5069126;28;20182;-69
2023/02/22 05:49:07;;;;;;;0.10;0.10;;;;;;;-15.52;65.73;98821.31;5084129;28;21310;-69
2023/02/22 05:51:33;;;;;;;0.10;0.10;;;;;;;-15.49;65.78;98820.19;5068016;28;20143;-69
2023/02/22 05:53:59;;;;;;;0.10;0.10;;;;;;;-15.46;65.25;98825.16;5056269;28;20143;-69
2023/02/22 05:56:27;;;;;;;0.20;0.20;;;;;;;-15.46;64.97;98817.31;5055996;28;20135;-69
2023/02/22 05:58:54;;;;;;;0.10;0.10;;;;;;;-15.44;64.99;98824.09;5084044;28;20537;-69
2023/02/22 06:01:22;;;;;;;0.13;0.13;;;;;;;-15.34;64.90;98826.75;5081069;28;20101;-69
2023/02/22 06:03:50;;;;;;;0.10;0.10;;;;;;;-15.30;64.63;98822.88;5079793;28;20451;-69
2023/02/22 06:06:18;;;;;;;0.27;0.20;;;;;;;-15.15;64.60;98831.22;5062186;28;20098;-69
2023/02/22 06:08:45;;;;;;;0.10;0.10;;;;;;;-15.04;64.69;98846.03;5062739;28;20056;-69
2023/02/22 06:11:12;;;;;;;0.20;0.20;;;;;;;-15.01;64.05;98835.25;5067523;28;20097;-69
2023/02/22 06:13:38;;;;;;;0.10;0.10;;;;;;;-15.01;64.00;98835.25;5082280;28;20047;-68
2023/02/22 06:16:05;;;;;;;0.13;0.13;;;;;;;-15.01;63.66;98837.88;5107560;28;20426;-69
2023/02/22 06:18:31;;;;;;;0.28;0.28;;;;;;;-15.00;63.69;98825.59;5095757;28;20361;-68
2023/02/22 06:21:01;;;;;;;0.20;0.20;;;;;;;-14.94;63.48;98835.56;5096642;28;20040;-69
2023/02/22 06:23:28;;;;;;;0.20;0.20;;;;;;;-14.86;63.18;98848.00;5094570;28;20055;-69
2023/02/22 06:25:54;;;;;;;0.23;0.23;;;;;;;-14.87;62.97;98833.22;5087239;28;20455;-70
2023/02/22 06:28:20;;;;;;;0.30;0.30;;;;;;;-14.90;63.28;98846.63;5072130;28;20052;-69
2023/02/22 06:30:46;;;;;;;0.20;0.20;;;;;;;-14.88;63.02;98848.16;5087725;28;20121;-69
2023/02/22 06:33:12;;;;;;;0.10;0.10;;;;;;;-14.82;62.81;98849.41;5073865;28;20036;-70
2023/02/22 06:35:39;;;;;;;0.50;0.20;;;;;;;-14.79;63.09;98857.00;5054326;28;20050;-69
2023/02/22 06:38:06;;;;;;;0.37;0.37;;;;;;;-14.70;62.98;98864.03;5076722;28;20116;-68
2023/02/22 06:40:32;;;;;;;0.10;0.10;;;;;;;-14.59;62.39;98852.59;5086987;28;20044;-69
2023/02/22 06:43:01;;;;;;;0.10;0.10;;;;;;;-14.54;62.22;98858.25;5074272;28;20101;-69
2023/02/22 06:45:27;;;;;;;0.30;0.30;;;;;;;-14.54;61.58;98860.03;5087621;28;20105;-69
2023/02/22 06:47:54;;;;;;;0.23;0.23;;;;;;;-14.47;61.68;98868.22;5086432;28;20048;-68
2023/02/22 06:50:23;;;;;;;0.47;0.30;;;;;;;-14.41;61.95;98872.94;5090608;28;20511;-69
2023/02/22 06:52:49;;;;;;;0.60;0.30;;;;;;;-14.42;62.22;98871.28;5087630;28;20146;-68
2023/02/22 06:55:21;;;;;;;0.20;0.20;;;;;;;-14.33;62.38;98864.38;5087580;28;20067;-69
2023/02/22 06:57:47;;;;;;;0.20;0.20;;;;;;;-14.33;61.81;98865.19;5099002;28;20048;-69
2023/02/22 07:00:16;;;;;;;0.20;0.20;;;;;;;-14.28;61.88;98862.16;5073931;28;20044;-69
2023/02/22 07:02:42;;;;;;;0.30;0.30;;;;;;;-14.29;61.60;98866.56;5084454;28;20543;-69
2023/02/22 07:05:10;;;;;;;0.30;0.30;;;;;;;-14.22;61.53;98874.72;5085058;28;20075;-69
2023/02/22 07:07:37;;;;;;;0.20;0.20;;;;;;;-14.11;61.55;98879.03;5093933;28;20138;-69
2023/02/22 07:10:04;;;;;;;0.20;0.20;;;;;;;-14.02;60.79;98880.00;5087229;28;20054;-69
2023/02/22 07:12:31;;;;;;;0.25;0.25;;;;;;;-13.95;60.57;98896.03;5071344;28;20047;-69
2023/02/22 07:14:57;;;;;;;0.40;0.17;;;;;;;-13.84;60.68;98882.72;5089666;28;20500;-69
2023/02/22 07:17:24;;;;;;;0.20;0.20;;;;;;;-13.76;60.12;98890.75;5087454;28;20048;-68
2023/02/22 07:19:50;;;;;;;0.20;0.20;;;;;;;-13.70;60.01;98886.75;5087692;28;20052;-69
2023/02/22 07:22:16;;;;;;;0.20;0.20;;;;;;;-13.73;59.76;98892.28;5075609;28;20108;-68
2023/02/22 07:24:42;;;;;;;0.23;0.23;;;;;;;-13.62;59.47;98889.47;5075167;28;20087;-69
2023/02/22 07:27:08;;;;;;;0.20;0.20;;;;;;;-13.60;59.43;98899.88;5057904;28;20044;-69
2023/02/22 07:29:41;;;;;;;0.20;0.20;;;;;;;-13.56;59.12;98891.56;5074749;28;20085;-69
2023/02/22 07:32:07;;;;;;;0.20;0.20;;;;;;;-13.54;58.91;98888.75;5084248;28;20044;-69
2023/02/22 07:34:33;;;;;;;0.10;0.10;;;;;;;-13.44;58.90;98905.38;5089205;28;20483;-69
2023/02/22 07:36:59;;;;;;;0.30;0.30;;;;;;;-13.23;57.73;98901.66;5084782;28;20082;-69
2023/02/22 07:39:26;;;;;;;0.30;0.30;;;;;;;-13.13;57.86;98902.47;5069655;28;20055;-69
2023/02/22 07:41:52;;;;;;;0.33;0.33;;;;;;;-12.80;57.03;98917.84;5068263;28;20462;-69
2023/02/22 07:44:22;;;;;;;0.40;0.40;;;;;;;-12.42;56.31;98913.34;5070678;28;20078;-70
2023/02/22 07:46:49;;;;;;;0.40;0.40;;;;;;;-12.18;55.50;98911.94;5068825;28;20044;-69
2023/02/22 07:49:16;;;;;;;0.35;0.35;;;;;;;-12.09;54.88;98926.06;5088664;28;20608;-69
2023/02/22 07:51:42;;;;;;;0.27;0.27;;;;;;;-11.74;54.07;98928.78;5085859;28;20534;-70
2023/02/22 07:54:08;;;;;;;0.40;0.40;;;;;;;-11.43;52.89;98929.19;5085936;28;20063;-69
2023/02/22 07:56:34;;;;;;;0.30;0.30;;;;;;;-11.28;52.26;98921.53;5083284;28;20076;-69
2023/02/22 07:59:00;;;;;;;0.40;0.40;;;;;;;-11.07;51.97;98930.91;5072855;28;20040;-69
2023/02/22 08:01:26;;;;;;;0.40;0.40;;;;;;;-10.83;51.47;98932.84;5053638;28;20051;-69
2023/02/22 08:03:55;;;;;;;0.60;0.50;;;;;;;-10.43;50.70;98933.19;5087190;28;20043;-69
2023/02/22 08:06:24;;;;;;;0.43;0.43;;;;;;;-10.29;50.08;98925.59;5084114;28;20131;-69
2023/02/22 08:08:50;;;;;;;0.40;0.40;;;;;;;-10.09;49.18;98915.53;5083842;28;20066;-69
2023/02/22 08:11:16;;;;;;;0.40;0.40;;;;;;;-9.77;48.80;98927.13;5084678;28;20159;-69
2023/02/22 08:13:43;;;;;;;0.40;0.40;;;;;;;-9.36;48.25;98936.09;5055971;28;20047;-70
2023/02/22 08:16:09;;;;;;;0.37;0.37;;;;;;;-9.13;47.23;98931.75;5070112;28;20039;-70
2023/02/22 08:18:37;;;;;;;0.43;0.43;;;;;;;-9.07;46.67;98937.38;5085394;28;20120;-70
2023/02/22 08:21:05;;;;;;;0.40;0.40;;;;;;;-8.87;46.56;98927.22;5054533;28;20043;-69
2023/02/22 08:23:31;;;;;;;0.33;0.33;;;;;;;-8.89;46.29;98934.53;5085686;28;20054;-69
2023/02/22 08:26:03;;;;;;;0.40;0.40;;;;;;;-8.75;45.86;98936.44;5088168;28;20048;-70
2023/02/22 08:28:30;;;;;;;0.40;0.40;;;;;;;-8.77;46.52;98945.59;5091865;28;20044;-69
2023/02/22 08:30:56;;;;;;;0.37;0.37;;;;;;;-8.58;46.03;98950.47;5069446;28;20171;-69
2023/02/22 08:33:23;;;;;;;0.47;0.47;;;;;;;-8.49;45.66;98947.78;5086700;28;20131;-69
2023/02/22 08:35:52;;;;;;;0.40;0.40;;;;;;;-8.12;45.14;98962.19;5057781;28;20051;-70
2023/02/22 08:38:22;;;;;;;0.40;0.40;;;;;;;-7.90;44.86;98957.91;5083136;28;20119;-70
2023/02/22 08:40:49;;;;;;;0.37;0.37;;;;;;;-7.75;43.88;98957.16;5087229;28;20052;-70
2023/02/22 08:43:15;;;;;;;0.30;0.30;;;;;;;-7.54;43.57;98961.81;5073080;28;20072;-70
2023/02/22 08:45:43;;;;;;;0.40;0.40;;;;;;;-7.39;42.96;98961.06;5078071;28;20032;-70
2023/02/22 08:48:09;;;;;;;;;;;;;;;-7.15;42.97;98975.97;5057671;28;20047;-70
2023/02/22 08:50:35;;;;;;;0.40;0.40;;;;;;;-6.81;42.43;98973.78;5083976;28;20296;-70
2023/02/22 08:53:03;;;;;;;0.43;0.43;;;;;;;-6.42;41.54;98975.38;5069581;28;20048;-70
2023/02/22 08:55:34;;;;;;;0.30;0.30;;;;;;;-6.17;40.89;98983.03;5086054;28;20483;-70
2023/02/22 08:58:02;;;;;;;0.37;0.37;;;;;;;-5.70;40.91;98978.22;5090198;28;20048;-71
2023/02/22 09:00:31;;;;;;;0.40;0.40;;;;;;;-5.56;39.51;98980.03;5092061;28;20225;-70
2023/02/22 09:02:58;;;;;;;0.40;0.40;;;;;;;-5.46;39.62;98979.69;5083682;28;20519;-70
2023/02/22 09:05:24;;;;;;;0.60;0.50;;;;;;;-5.20;38.61;98977.47;5071874;28;20066;-70
2023/02/22 09:07:50;;;;;;;0.40;0.40;;;;;;;-5.03;38.69;98984.16;5084568;28;20427;-70
2023/02/22 09:10:17;;;;;;;0.30;0.30;;;;;;;-4.81;38.23;98985.97;5086227;28;20051;-70
2023/02/22 09:12:45;;;;;;;0.28;0.28;;;;;;;-4.84;37.75;98987.16;5084844;28;20040;-70
2023/02/22 09:15:11;;;;;;;0.30;0.30;;;;;;;-4.62;37.88;98997.81;5067755;28;20063;-70
2023/02/22 09:17:38;;;;;;;0.33;0.33;;;;;;;-3.97;37.01;98989.50;5073795;28;20043;-70
2023/02/22 09:20:06;;;;;;;0.30;0.30;;;;;;;-4.06;36.62;98996.03;5070648;28;20052;-70
2023/02/22 09:22:33;;;;;;;0.47;0.47;;;;;;;-3.82;36.41;98988.53;5087713;28;20055;-70
2023/02/22 09:24:59;;;;;;;0.30;0.30;;;;;;;-3.63;35.90;98995.78;5089745;28;20435;-71
2023/02/22 09:27:27;;;;;;;0.30;0.30;;;;;;;-4.11;36.25;99004.66;5089750;28;20051;-70
2023/02/22 09:29:55;;;;;;;0.30;0.30;;;;;;;-4.23;36.74;98984.88;5071059;28;20695;-70
2023/02/22 09:32:22;;;;;;;0.33;0.33;;;;;;;-3.62;36.38;99000.09;5070459;28;20515;-71
2023/02/22 09:34:48;;;;;;;0.40;0.40;;;;;;;-2.73;35.57;98991.94;5083155;28;20423;-71
2023/02/22 09:37:14;;;;;;;0.40;0.40;;;;;;;-2.04;33.73;98998.78;5084470;28;20533;-70
2023/02/22 09:39:40;;;;;;;0.40;0.40;;;;;;;-2.23;33.09;98997.84;5069748;28;20152;-70
2023/02/22 09:42:12;;;;;;;0.40;0.40;;;;;;;-2.45;33.30;98998.91;5083532;28;20040;-70
2023/02/22 09:44:47;;;;;;;0.40;0.40;;;;;;;-2.50;33.58;99006.72;5090087;28;20066;-71
2023/02/22 09:47:17;;;;;;;0.47;0.47;;;;;;;-2.40;33.79;99008.16;5051592;28;20056;-71
2023/02/22 09:49:56;;;;;;;0.50;0.50;;;;;;;-2.25;33.04;99002.56;5075777;28;20055;-70
2023/02/22 09:52:27;;;;;;;0.43;0.43;;;;;;;-2.45;32.43;98998.91;5092005;28;20048;-70
2023/02/22 09:55:03;;;;;;;0.50;0.50;;;;;;;-2.55;32.18;98997.69;5087246;28;20564;-69
2023/02/22 09:57:34;;;;;;;0.50;0.50;;;;;;;-2.77;32.78;99005.94;5092190;28;20557;-69
2023/02/22 10:00:14;;;;;;;0.60;0.60;;;;;;;-2.62;32.90;99006.53;5077231;28;20044;-69
2023/02/22 10:02:50;;;;;;;0.40;0.40;;;;;;;-2.15;32.58;99002.94;5073393;28;20044;-70
2023/02/22 10:05:21;;;;;;;0.60;0.60;;;;;;;-1.77;31.84;99004.03;5088264;28;20048;-69
2023/02/22 10:07:55;;;;;;;0.60;0.60;;;;;;;-1.33;31.70;99004.19;5058531;28;20055;-70
2023/02/22 10:10:25;;;;;;;0.50;0.50;;;;;;;-0.87;30.79;99004.91;5077972;28;20164;-70
2023/02/22 10:13:00;;;;;;;0.60;0.60;;;;;;;-0.99;30.30;98994.06;5088757;28;20499;-69
2023/02/22 10:15:40;;;;;;;1.02;0.70;;;;;;;-1.01;31.30;99006.91;5065943;28;20128;-70
2023/02/22 10:18:41;;;;;;;0.50;0.50;;;;;;;-0.87;30.69;99002.22;5062575;28;20047;-69
2023/02/22 10:21:18;;;;;;;0.60;0.60;;;;;;;-0.91;30.61;99012.56;5079501;28;20055;-70
2023/02/22 10:23:52;;;;;;;0.60;0.60;;;;;;;-0.89;30.43;99018.53;5100931;28;20105;-69
2023/02/22 10:26:24;;;;;;;0.60;0.60;;;;;;;-0.74;30.57;99015.53;5085855;28;20053;-69
2023/02/22 10:28:54;;;;;;;0.70;0.70;;;;;;;-0.36;29.46;99004.84;5091753;28;20047;-69
2023/02/22 10:31:25;;;;;;;0.60;0.52;;;;;;;-0.54;29.48;99009.16;5072875;28;20055;-70
2023/02/22 10:33:58;;;;;;;0.68;0.68;;;;;;;-0.49;30.05;99006.63;5059016;28;20071;-69
2023/02/22 10:36:26;;;;;;;1.00;0.65;;;;;;;-0.45;29.73;99015.91;5043095;28;20032;-69
2023/02/22 10:38:57;;;;;;;0.60;0.60;;;;;;;-0.01;29.35;99010.47;5094391;28;20104;-70
2023/02/22 10:41:28;;;;;;;0.70;0.70;;;;;;;-0.47;29.33;99017.16;5081429;28;20080;-70
2023/02/22 10:43:54;;;;;;;0.70;0.70;;;;;;;-0.53;29.99;99015.38;5094597;28;20032;-71
2023/02/22 10:46:21;;;;;;;0.60;0.60;;;;;;;-0.06;29.24;99020.25;5092092;28;20043;-70
2023/02/22 10:48:50;;;;;;;0.52;0.52;;;;;;;-0.03;28.83;99009.88;5094101;28;20066;-71
2023/02/22 10:51:18;;;;;;;0.73;0.73;;;;;;;-0.10;28.84;99027.13;5077512;28;20055;-70
2023/02/22 10:53:52;;;;;;;0.70;0.70;;;;;;;0.31;28.75;99020.22;5053868;28;20062;-69
2023/02/22 10:56:20;;;;;;;0.30;0.30;;;;;;;0.02;28.60;99027.19;5069185;28;20044;-69
2023/02/22 10:58:50;;;;;;;0.60;0.60;;;;;;;-0.23;29.30;99026.22;5090025;28;20552;-70
2023/02/22 11:01:23;;;;;;;0.73;0.63;;;;;;;-0.02;29.10;99030.34;5072784;28;20514;-69
2023/02/22 11:03:57;;;;;;;1.05;0.73;;;;;;;-0.04;29.32;99031.59;5059591;28;20082;-69
2023/02/22 11:06:26;;;;;;;0.30;0.30;;;;;;;0.07;28.86;99030.03;5098789;28;20073;-69
2023/02/22 11:09:03;;;;;;;0.20;0.20;;;;;;;-1.92;30.49;99041.84;5076535;28;20052;-69
2023/02/22 11:11:29;;;;;;;0.20;0.20;;;;;;;-4.01;33.63;99049.69;5070201;28;20111;-69
2023/02/22 11:13:56;;;;;;;0.50;0.50;;;;;;;-4.89;35.74;99035.78;5096107;28;20594;-69
2023/02/22 11:16:30;;;;;;;0.60;0.60;;;;;;;-4.44;35.31;99048.81;5095070;28;20526;-69
2023/02/22 11:19:00;;;;;;;0.68;0.68;;;;;;;-2.73;33.79;99050.81;5070882;28;20423;-69
2023/02/22 11:21:31;;;;;;;0.28;0.28;;;;;;;-2.71;33.04;99042.59;5092524;28;20054;-70
2023/02/22 11:24:02;;;;;;;0.77;0.77;;;;;;;-2.70;33.23;99049.59;5092922;28;20048;-70
2023/02/22 11:26:35;;;;;;;0.60;0.60;;;;;;;-2.67;33.02;99059.88;5052316;28;20117;-69
2023/02/22 11:29:10;;;;;;;0.52;0.52;;;;;;;-2.59;32.55;99054.31;5088418;28;20507;-70
2023/02/22 11:31:42;;;;;;;0.70;0.70;;;;;;;-2.51;32.98;99055.13;5047381;28;20599;-70
2023/02/22 11:34:25;;;;;;;0.80;0.80;;;;;;;-1.57;31.40;99054.88;5046726;28;20049;-70
2023/02/22 11:36:52;;;;;;;0.80;0.80;;;;;;;-1.41;31.05;99063.47;5048506;28;20048;-70
2023/02/22 11:39:24;;;;;;;0.80;0.80;;;;;;;-0.87;30.53;99050.56;5043862;28;20068;-70